Time;durP1;ratioP1;P1;durP2;ratioP2;P2;SDS_P1;SDS_P2;PMS_P1;PMS_P2;Temp;Humidity;BMP_temperature;BMP_pressure;BME280_temperature;BME280_humidity;BME280_pressure;Samples;Min_cycle;Max_cycle;Signal;HPM_P1;HPM_P2
2023/12/02 00:01:34;;;;;;;38.87;16.10;;;;;;;-145.18;100.00;46732.66;5027762;28;20107;-68
2023/12/02 00:04:00;;;;;;;43.07;14.97;;;;;;;-145.18;100.00;46728.75;5027611;28;20068;-68
2023/12/02 00:06:25;;;;;;;38.50;14.53;;;;;;;-145.18;100.00;46722.91;5028106;28;20544;-68
2023/12/02 00:08:51;;;;;;;37.17;14.47;;;;;;;-145.18;100.00;46732.66;5027842;28;20503;-69
2023/12/02 00:11:16;;;;;;;39.47;15.27;;;;;;;-145.18;100.00;46730.72;5027833;28;20026;-68
2023/12/02 00:13:41;;;;;;;34.00;13.30;;;;;;;-145.18;100.00;46726.81;5031679;28;20026;-68
2023/12/02 00:16:07;;;;;;;36.20;13.87;;;;;;;-145.18;100.00;46732.66;5028261;28;20025;-68
2023/12/02 00:18:33;;;;;;;39.88;15.48;;;;;;;-145.18;100.00;46734.63;5020494;28;20040;-68
2023/12/02 00:20:58;;;;;;;35.87;15.30;;;;;;;-145.18;100.00;46734.63;5028823;28;20049;-68
2023/12/02 00:23:24;;;;;;;43.13;16.17;;;;;;;-145.18;100.00;46732.66;5029111;28;20124;-68
2023/12/02 00:25:49;;;;;;;34.20;15.17;;;;;;;-145.18;100.00;46732.66;5032694;28;20029;-69
2023/12/02 00:28:14;;;;;;;33.77;13.73;;;;;;;-145.18;100.00;46736.56;5026691;28;20030;-69
2023/12/02 00:30:40;;;;;;;38.43;15.27;;;;;;;-145.18;100.00;46736.56;5029405;28;20124;-68
2023/12/02 00:33:05;;;;;;;36.67;15.13;;;;;;;-145.18;100.00;46734.63;5027863;28;20029;-68
2023/12/02 00:35:30;;;;;;;37.83;14.30;;;;;;;-145.18;100.00;46736.56;5029186;28;20037;-68
2023/12/02 00:37:56;;;;;;;40.57;15.93;;;;;;;-145.18;100.00;46736.56;5062250;28;20548;-68
2023/12/02 00:40:21;;;;;;;39.90;15.80;;;;;;;-145.18;100.00;46742.44;5027328;28;20041;-68
2023/12/02 00:42:47;;;;;;;31.33;13.93;;;;;;;-145.18;100.00;46736.56;5028722;28;20025;-69
2023/12/02 00:45:12;;;;;;;41.57;14.73;;;;;;;-145.18;100.00;46740.47;5024311;28;20040;-69
2023/12/02 00:47:38;;;;;;;33.97;13.77;;;;;;;-145.18;100.00;46738.53;5025254;28;20472;-69
2023/12/02 00:50:03;;;;;;;34.47;14.07;;;;;;;-145.18;100.00;46736.56;5027592;28;20037;-69
2023/12/02 00:52:29;;;;;;;38.47;14.20;;;;;;;-145.18;100.00;46736.56;5027937;28;20029;-68
2023/12/02 00:54:54;;;;;;;36.27;14.80;;;;;;;-145.18;100.00;46736.56;5059335;28;20037;-69
2023/12/02 00:57:20;;;;;;;36.63;15.90;;;;;;;-145.18;100.00;46740.47;5024585;28;20117;-69
2023/12/02 00:59:45;;;;;;;46.00;16.07;;;;;;;-145.18;100.00;46736.56;5028393;28;20117;-69
2023/12/02 01:02:11;;;;;;;37.93;14.43;;;;;;;-145.18;100.00;46734.63;5024611;28;20040;-68
2023/12/02 01:04:36;;;;;;;39.13;15.07;;;;;;;-145.18;100.00;46734.63;5022089;28;20374;-69
2023/12/02 01:07:01;;;;;;;39.03;16.27;;;;;;;-145.18;100.00;46736.56;5021022;28;20045;-68
2023/12/02 01:09:27;;;;;;;39.17;14.70;;;;;;;-145.18;100.00;46734.63;5025893;28;20042;-69
2023/12/02 01:11:52;;;;;;;37.57;14.27;;;;;;;-145.18;100.00;46732.66;5027406;28;20033;-69
2023/12/02 01:14:17;;;;;;;37.80;15.40;;;;;;;-145.18;100.00;46728.75;5028347;28;20218;-69
2023/12/02 01:16:43;;;;;;;45.13;16.20;;;;;;;-145.18;100.00;46732.66;5028755;28;20048;-69
2023/12/02 01:19:08;;;;;;;42.43;15.43;;;;;;;-145.18;100.00;46736.56;5008591;28;20403;-69
2023/12/02 01:21:33;;;;;;;46.10;15.57;;;;;;;-145.18;100.00;46728.75;5029056;28;20057;-69
2023/12/02 01:23:59;;;;;;;43.17;15.10;;;;;;;-145.18;100.00;46732.66;5029241;28;20468;-69
2023/12/02 01:26:24;;;;;;;38.97;15.87;;;;;;;-145.18;100.00;46734.63;5032963;28;20038;-69
2023/12/02 01:28:50;;;;;;;40.97;14.77;;;;;;;-145.18;100.00;46738.53;5014694;28;20407;-69
2023/12/02 01:31:15;;;;;;;39.77;14.40;;;;;;;-145.18;100.00;46738.53;5031848;28;20068;-69
2023/12/02 01:33:40;;;;;;;36.70;13.33;;;;;;;-145.18;100.00;46732.66;5031530;28;20148;-69
2023/12/02 01:36:11;;;;;;;39.50;15.30;;;;;;;-145.18;100.00;46736.56;5031398;28;20034;-69
2023/12/02 01:38:36;;;;;;;41.33;16.23;;;;;;;-145.18;100.00;46734.63;5021304;28;20495;-69
2023/12/02 01:41:01;;;;;;;41.23;15.30;;;;;;;-145.18;100.00;46734.63;5026135;28;20096;-68
2023/12/02 01:43:27;;;;;;;42.03;14.57;;;;;;;-145.18;100.00;46738.53;5015187;28;20464;-69
2023/12/02 01:45:54;;;;;;;43.42;14.68;;;;;;;-145.18;100.00;46734.63;5023260;28;20509;-69
2023/12/02 01:48:21;;;;;;;41.88;16.05;;;;;;;-145.18;100.00;46728.75;5024008;28;20032;-68
2023/12/02 01:50:48;;;;;;;38.45;15.73;;;;;;;-145.18;100.00;46728.75;5032453;28;20032;-69
2023/12/02 01:53:13;;;;;;;45.63;15.30;;;;;;;-145.18;100.00;46728.75;5043355;28;20076;-69
2023/12/02 01:55:38;;;;;;;41.47;15.53;;;;;;;-145.18;100.00;46736.56;5046632;28;20037;-69
2023/12/02 01:58:04;;;;;;;40.00;15.17;;;;;;;-145.18;100.00;46734.63;5026269;28;20026;-68
2023/12/02 02:00:30;;;;;;;40.63;14.30;;;;;;;-145.18;100.00;46726.81;5032511;28;20390;-69
2023/12/02 02:02:55;;;;;;;34.53;14.03;;;;;;;-145.18;100.00;46726.81;5063896;28;20126;-69
2023/12/02 02:05:21;;;;;;;43.90;15.07;;;;;;;-145.18;100.00;46726.81;5031421;28;20032;-69
2023/12/02 02:07:46;;;;;;;37.90;14.03;;;;;;;-145.18;100.00;46724.84;5032088;28;20037;-69
2023/12/02 02:10:12;;;;;;;46.73;16.77;;;;;;;-145.18;100.00;46724.84;5028446;28;20025;-68
2023/12/02 02:12:37;;;;;;;40.93;15.43;;;;;;;-145.18;100.00;46726.81;5024395;28;20049;-68
2023/12/02 02:15:03;;;;;;;39.20;15.67;;;;;;;-145.18;100.00;46726.81;5027598;28;20488;-68
2023/12/02 02:17:28;;;;;;;38.27;16.23;;;;;;;-145.18;100.00;46728.75;5024086;28;20105;-69
2023/12/02 02:19:53;;;;;;;43.87;15.07;;;;;;;-145.18;100.00;46728.75;5028133;28;20399;-68
2023/12/02 02:22:19;;;;;;;40.73;15.07;;;;;;;-145.18;100.00;46726.81;5027657;28;20068;-69
2023/12/02 02:24:44;;;;;;;39.70;14.90;;;;;;;-145.18;100.00;46726.81;5030546;28;20033;-68
2023/12/02 02:27:09;;;;;;;38.80;14.20;;;;;;;-145.18;100.00;46724.84;5031692;28;20100;-69
2023/12/02 02:29:35;;;;;;;34.23;14.20;;;;;;;-145.18;100.00;46724.84;5031614;28;20030;-69
2023/12/02 02:32:00;;;;;;;40.13;15.77;;;;;;;-145.18;100.00;46724.84;5032055;28;20036;-69
2023/12/02 02:34:26;;;;;;;39.83;15.30;;;;;;;-145.18;100.00;46722.91;5024635;28;20388;-69
2023/12/02 02:36:51;;;;;;;40.83;14.83;;;;;;;-145.18;100.00;46726.81;5026116;28;20113;-69
2023/12/02 02:39:17;;;;;;;44.93;16.47;;;;;;;-145.18;100.00;46726.81;5031709;28;20044;-68
2023/12/02 02:41:42;;;;;;;37.23;13.70;;;;;;;-145.18;100.00;46724.84;5053339;28;20056;-70
2023/12/02 02:44:07;;;;;;;32.33;14.27;;;;;;;-145.18;100.00;46724.84;5030337;28;20029;-69
2023/12/02 02:46:33;;;;;;;36.63;13.73;;;;;;;-145.18;100.00;46726.81;5027108;28;20045;-69
2023/12/02 02:48:58;;;;;;;35.20;14.33;;;;;;;-145.18;100.00;46728.75;5027913;28;20026;-69
2023/12/02 02:51:23;;;;;;;32.47;13.00;;;;;;;-145.18;100.00;46726.81;5027677;28;20030;-69
2023/12/02 02:53:49;;;;;;;37.37;13.93;;;;;;;-145.18;100.00;46722.91;5029445;28;20538;-69
2023/12/02 02:56:14;;;;;;;28.90;12.63;;;;;;;-145.18;100.00;46722.91;5029041;28;20037;-69
2023/12/02 02:58:40;;;;;;;36.73;14.40;;;;;;;-145.18;100.00;46726.81;5020444;28;20037;-69
2023/12/02 03:01:05;;;;;;;38.63;13.27;;;;;;;-145.18;100.00;46720.94;5029567;28;20031;-69
2023/12/02 03:03:31;;;;;;;33.33;13.63;;;;;;;-145.18;100.00;46724.84;5029704;28;20025;-69
2023/12/02 03:05:56;;;;;;;38.27;14.17;;;;;;;-145.18;100.00;46728.75;5030065;28;20038;-69
2023/12/02 03:08:21;;;;;;;37.17;15.63;;;;;;;-145.18;100.00;46722.91;5029624;28;20064;-69
2023/12/02 03:10:48;;;;;;;37.87;15.40;;;;;;;-145.18;100.00;46720.94;5030393;28;20057;-69
2023/12/02 03:13:14;;;;;;;38.95;14.27;;;;;;;-145.18;100.00;46724.84;5033603;28;20026;-69
2023/12/02 03:15:39;;;;;;;38.63;14.43;;;;;;;-145.18;100.00;46722.91;5033769;28;20037;-69
2023/12/02 03:18:04;;;;;;;39.07;16.50;;;;;;;-145.18;100.00;46724.84;5034407;28;20402;-68
2023/12/02 03:20:30;;;;;;;38.07;14.97;;;;;;;-145.18;100.00;46726.81;5033845;28;20080;-69
2023/12/02 03:22:55;;;;;;;40.53;14.50;;;;;;;-145.18;100.00;46724.84;5034769;28;20029;-69
2023/12/02 03:25:20;;;;;;;45.20;14.90;;;;;;;-145.18;100.00;46720.94;5034024;28;20160;-69
2023/12/02 03:27:46;;;;;;;37.00;13.93;;;;;;;-145.18;100.00;46722.91;5028962;28;20109;-69
2023/12/02 03:30:12;;;;;;;38.73;13.77;;;;;;;-145.18;100.00;46722.91;5029802;28;20033;-69
2023/12/02 03:32:41;;;;;;;38.25;15.18;;;;;;;-145.18;100.00;46722.91;5034787;28;20025;-69
2023/12/02 03:35:10;;;;;;;45.10;16.15;;;;;;;-145.18;100.00;46719.00;5025159;28;20113;-70
2023/12/02 03:37:36;;;;;;;40.65;15.48;;;;;;;-145.18;100.00;46724.84;5025445;28;20167;-69
2023/12/02 03:40:02;;;;;;;41.72;15.63;;;;;;;-145.18;100.00;46726.81;5034353;28;20086;-70
2023/12/02 03:42:29;;;;;;;33.47;13.53;;;;;;;-145.18;100.00;46726.81;5029662;28;20124;-69
2023/12/02 03:44:55;;;;;;;40.38;14.80;;;;;;;-145.18;100.00;46720.94;5023712;28;20030;-69
2023/12/02 03:47:20;;;;;;;45.67;15.93;;;;;;;-145.18;100.00;46720.94;5032546;28;20044;-69
2023/12/02 03:49:45;;;;;;;34.63;12.90;;;;;;;-145.18;100.00;46726.81;5056765;28;20163;-68
2023/12/02 03:52:11;;;;;;;37.90;13.73;;;;;;;-145.18;100.00;46720.94;5028060;28;20105;-69
2023/12/02 03:54:36;;;;;;;35.73;12.27;;;;;;;-145.18;100.00;46720.94;5030989;28;20034;-69
2023/12/02 03:57:02;;;;;;;36.67;14.10;;;;;;;-145.18;100.00;46720.94;5034097;28;20060;-69
2023/12/02 03:59:27;;;;;;;42.17;14.27;;;;;;;-145.18;100.00;46722.91;5034247;28;20073;-69
2023/12/02 04:01:53;;;;;;;39.30;14.03;;;;;;;-145.18;100.00;46720.94;5027302;28;20049;-69
2023/12/02 04:04:18;;;;;;;39.07;15.03;;;;;;;-145.18;100.00;46715.09;5033142;28;20031;-69
2023/12/02 04:06:44;;;;;;;34.60;12.77;;;;;;;-145.18;100.00;46717.03;5033526;28;20060;-69
2023/12/02 04:09:10;;;;;;;36.33;13.03;;;;;;;-145.18;100.00;46720.94;5029880;28;20040;-69
2023/12/02 04:11:35;;;;;;;35.10;12.27;;;;;;;-145.18;100.00;46720.94;5027035;28;20049;-69
2023/12/02 04:14:01;;;;;;;36.67;12.07;;;;;;;-145.18;100.00;46720.94;5022204;28;20483;-69
2023/12/02 04:16:26;;;;;;;36.33;12.90;;;;;;;-145.18;100.00;46720.94;5021117;28;20408;-69
2023/12/02 04:18:51;;;;;;;36.33;13.83;;;;;;;-145.18;100.00;46722.91;5021672;28;20033;-62
2023/12/02 04:21:17;;;;;;;39.20;12.53;;;;;;;-145.18;100.00;46717.03;5022397;28;20053;-62
2023/12/02 04:23:43;;;;;;;32.53;12.07;;;;;;;-145.18;100.00;46715.09;5019325;28;20038;-61
2023/12/02 04:26:08;;;;;;;42.35;14.77;;;;;;;-145.18;100.00;46717.03;5024655;28;20047;-60
2023/12/02 04:28:34;;;;;;;35.37;12.53;;;;;;;-145.18;100.00;46717.03;5031831;28;20547;-61
2023/12/02 04:30:59;;;;;;;44.40;15.23;;;;;;;-145.18;100.00;46713.13;5043087;28;20025;-61
2023/12/02 04:33:25;;;;;;;42.33;14.27;;;;;;;-145.18;100.00;46715.09;5023032;28;20018;-61
2023/12/02 04:35:50;;;;;;;43.37;15.77;;;;;;;-145.18;100.00;46715.09;5025276;28;20112;-62
2023/12/02 04:38:16;;;;;;;40.83;15.67;;;;;;;-145.18;100.00;46711.19;5029968;28;20506;-62
2023/12/02 04:40:42;;;;;;;45.27;16.43;;;;;;;-145.18;100.00;46717.03;5014682;28;20542;-62
2023/12/02 04:43:07;;;;;;;42.83;16.47;;;;;;;-145.18;100.00;46709.22;5021560;28;20032;-62
2023/12/02 04:45:32;;;;;;;40.93;15.03;;;;;;;-145.18;100.00;46713.13;5032704;28;20084;-62
2023/12/02 04:47:59;;;;;;;39.47;14.97;;;;;;;-145.18;100.00;46711.19;5051661;28;20061;-62
2023/12/02 04:50:24;;;;;;;38.50;14.90;;;;;;;-145.18;100.00;46705.31;5013388;28;20100;-61
2023/12/02 04:52:50;;;;;;;43.73;15.40;;;;;;;-145.18;100.00;46713.13;5018203;28;20026;-61
2023/12/02 04:55:16;;;;;;;42.93;15.60;;;;;;;-145.18;100.00;46709.22;5015568;28;20447;-62
2023/12/02 04:57:42;;;;;;;42.60;15.98;;;;;;;-145.18;100.00;46711.19;5025839;28;20029;-62
2023/12/02 05:00:14;;;;;;;40.77;15.77;;;;;;;-145.18;100.00;46709.22;5032035;28;20033;-62
2023/12/02 05:02:43;;;;;;;43.13;16.17;;;;;;;-145.18;100.00;46715.09;5031696;28;20068;-61
2023/12/02 05:05:12;;;;;;;46.90;15.75;;;;;;;-145.18;100.00;46713.13;5031584;28;20504;-61
2023/12/02 05:07:38;;;;;;;50.58;17.20;;;;;;;-145.18;100.00;46711.19;5039980;28;20108;-62
2023/12/02 05:10:04;;;;;;;50.10;18.00;;;;;;;-145.18;100.00;46715.09;5073608;28;20117;-61
2023/12/02 05:12:30;;;;;;;45.35;17.02;;;;;;;-145.18;100.00;46709.22;5042893;28;20395;-61
2023/12/02 05:14:56;;;;;;;51.28;17.50;;;;;;;-145.18;100.00;46715.09;5033837;28;20526;-62
2023/12/02 05:17:21;;;;;;;38.50;15.43;;;;;;;-145.18;100.00;46715.09;5023003;28;20125;-61
2023/12/02 05:19:47;;;;;;;42.00;15.50;;;;;;;-145.18;100.00;46709.22;5031822;28;20037;-62
2023/12/02 05:22:12;;;;;;;52.37;17.07;;;;;;;-145.18;100.00;46713.13;5028661;28;20064;-61
2023/12/02 05:24:38;;;;;;;53.73;17.10;;;;;;;-145.18;100.00;46713.13;5032702;28;20029;-62
2023/12/02 05:27:04;;;;;;;46.93;18.43;;;;;;;-145.18;100.00;46715.09;5026121;28;20554;-61
2023/12/02 05:29:29;;;;;;;44.27;16.40;;;;;;;-145.18;100.00;46709.22;5035520;28;20029;-61
2023/12/02 05:31:54;;;;;;;50.37;18.40;;;;;;;-145.18;100.00;46709.22;5044302;28;20503;-61
2023/12/02 05:34:20;;;;;;;44.87;17.17;;;;;;;-145.18;100.00;46713.13;5041058;28;20026;-62
2023/12/02 05:36:46;;;;;;;49.40;17.87;;;;;;;-145.18;100.00;46709.22;5035911;28;20033;-61
2023/12/02 05:39:13;;;;;;;47.63;17.40;;;;;;;-145.18;100.00;46709.22;5034392;28;20037;-62
2023/12/02 05:41:41;;;;;;;45.72;17.23;;;;;;;-145.18;100.00;46711.19;4998047;28;20041;-61
2023/12/02 05:44:07;;;;;;;47.70;17.10;;;;;;;-145.18;100.00;46713.13;5035652;28;20107;-62
2023/12/02 05:46:32;;;;;;;50.33;17.10;;;;;;;-145.18;100.00;46707.28;5037751;28;20129;-61
2023/12/02 05:48:58;;;;;;;53.37;18.83;;;;;;;-145.18;100.00;46713.13;5037595;28;20056;-61
2023/12/02 05:51:23;;;;;;;57.43;16.37;;;;;;;-145.18;100.00;46711.19;5039424;28;20044;-61
2023/12/02 05:53:48;;;;;;;45.87;18.00;;;;;;;-145.18;100.00;46713.13;5037299;28;20459;-61
2023/12/02 05:56:18;;;;;;;44.37;17.63;;;;;;;-145.18;100.00;46713.13;5040926;28;20033;-62
2023/12/02 05:58:43;;;;;;;56.30;18.08;;;;;;;-145.18;100.00;46713.13;5028287;28;20380;-62
2023/12/02 06:01:09;;;;;;;53.00;18.43;;;;;;;-145.18;100.00;46719.00;5022274;28;20095;-61
2023/12/02 06:03:34;;;;;;;45.13;17.43;;;;;;;-145.18;100.00;46713.13;5022897;28;20462;-61
2023/12/02 06:05:59;;;;;;;44.73;16.73;;;;;;;-145.18;100.00;46717.03;5027454;28;20497;-62
2023/12/02 06:08:25;;;;;;;48.03;17.00;;;;;;;-145.18;100.00;46713.13;5030033;28;20487;-62
2023/12/02 06:10:50;;;;;;;51.27;18.17;;;;;;;-145.18;100.00;46715.09;5026358;28;20033;-62
2023/12/02 06:13:16;;;;;;;48.87;17.87;;;;;;;-145.18;100.00;46715.09;5045699;28;20030;-62
2023/12/02 06:15:41;;;;;;;52.43;17.37;;;;;;;-145.18;100.00;46715.09;5028136;28;20631;-62
2023/12/02 06:18:06;;;;;;;46.47;17.43;;;;;;;-145.18;100.00;46719.00;5026691;28;20104;-62
2023/12/02 06:20:32;;;;;;;49.00;17.97;;;;;;;-145.18;100.00;46717.03;5057773;28;20060;-62
2023/12/02 06:22:57;;;;;;;52.33;18.00;;;;;;;-145.18;100.00;46713.13;5049727;28;20038;-62
2023/12/02 06:25:23;;;;;;;49.93;17.60;;;;;;;-145.18;100.00;46719.00;5000233;28;20076;-62
2023/12/02 06:27:48;;;;;;;48.67;18.53;;;;;;;-145.18;100.00;46715.09;5025236;28;20125;-61
2023/12/02 06:30:18;;;;;;;47.73;17.10;;;;;;;-145.18;100.00;46715.09;5029299;28;20037;-62
2023/12/02 06:32:43;;;;;;;46.22;16.38;;;;;;;-145.18;100.00;46715.09;5023314;28;20112;-62
2023/12/02 06:35:09;;;;;;;52.07;18.57;;;;;;;-145.18;100.00;46717.03;5024346;28;20538;-62
2023/12/02 06:37:35;;;;;;;50.10;19.00;;;;;;;-145.18;100.00;46715.09;5028013;28;20025;-62
2023/12/02 06:40:01;;;;;;;55.37;18.73;;;;;;;-145.18;100.00;46715.09;5031225;28;20025;-69
2023/12/02 06:42:26;;;;;;;55.23;17.93;;;;;;;-145.18;100.00;46717.03;5031420;28;20033;-68
2023/12/02 06:44:52;;;;;;;54.03;18.83;;;;;;;-145.18;100.00;46719.00;5029328;28;20104;-69
2023/12/02 06:47:17;;;;;;;55.23;19.80;;;;;;;-145.18;100.00;46715.09;5026831;28;20022;-69
2023/12/02 06:49:42;;;;;;;47.47;17.77;;;;;;;-145.18;100.00;46720.94;5031966;28;20036;-69
2023/12/02 06:52:08;;;;;;;52.03;17.37;;;;;;;-145.18;100.00;46715.09;5034793;28;20033;-69
2023/12/02 06:54:37;;;;;;;50.97;16.80;;;;;;;-145.18;100.00;46719.00;5035432;28;20392;-69
2023/12/02 06:57:04;;;;;;;52.22;18.33;;;;;;;-145.18;100.00;46717.03;5032417;28;20083;-69
2023/12/02 06:59:30;;;;;;;51.67;18.98;;;;;;;-145.18;100.00;46719.00;5032699;28;20484;-68
2023/12/02 07:01:55;;;;;;;50.70;18.53;;;;;;;-145.18;100.00;46717.03;5035808;28;20033;-69
2023/12/02 07:04:21;;;;;;;46.10;17.73;;;;;;;-145.18;100.00;46719.00;5036636;28;20037;-68
2023/12/02 07:06:46;;;;;;;52.17;17.97;;;;;;;-145.18;100.00;46717.03;5039973;28;20372;-68
2023/12/02 07:09:11;;;;;;;53.03;17.70;;;;;;;-145.18;100.00;46715.09;5032740;28;20537;-69
2023/12/02 07:11:37;;;;;;;57.97;19.10;;;;;;;-145.18;100.00;46717.03;5031338;28;20033;-69
2023/12/02 07:14:05;;;;;;;59.67;19.23;;;;;;;-145.18;100.00;46719.00;5032590;28;20060;-68
2023/12/02 07:16:31;;;;;;;48.03;17.05;;;;;;;-145.18;100.00;46717.03;5061585;28;20044;-69
2023/12/02 07:18:56;;;;;;;61.77;18.77;;;;;;;-145.18;100.00;46715.09;5024891;28;20029;-69
2023/12/02 07:21:22;;;;;;;54.40;17.33;;;;;;;-145.18;100.00;46715.09;5018567;28;20085;-68
2023/12/02 07:23:48;;;;;;;56.77;17.47;;;;;;;-145.18;100.00;46715.09;5060925;28;20514;-69
2023/12/02 07:26:14;;;;;;;46.77;18.90;;;;;;;-145.18;100.00;46717.03;5015439;28;20084;-69
2023/12/02 07:28:40;;;;;;;51.63;18.83;;;;;;;-145.18;100.00;46713.13;5030886;28;20037;-69
2023/12/02 07:31:06;;;;;;;50.20;17.07;;;;;;;-145.18;100.00;46715.09;5032334;28;20468;-69
2023/12/02 07:33:31;;;;;;;51.37;18.20;;;;;;;-145.18;100.00;46711.19;5028400;28;20025;-69
2023/12/02 07:35:56;;;;;;;58.13;20.07;;;;;;;-145.18;100.00;46719.00;5039226;28;20398;-69
2023/12/02 07:38:22;;;;;;;47.57;17.43;;;;;;;-145.18;100.00;46715.09;5035625;28;20037;-69
2023/12/02 07:40:47;;;;;;;58.03;18.50;;;;;;;-145.18;100.00;46720.94;5034671;28;20025;-69
2023/12/02 07:43:12;;;;;;;47.73;17.60;;;;;;;-145.18;100.00;46711.19;5039121;28;20562;-69
2023/12/02 07:45:38;;;;;;;49.63;18.27;;;;;;;-145.18;100.00;46713.13;5042620;28;20029;-69
2023/12/02 07:48:04;;;;;;;54.40;19.13;;;;;;;-145.18;100.00;46713.13;5033668;28;20028;-69
2023/12/02 07:50:29;;;;;;;56.13;19.98;;;;;;;-145.18;100.00;46715.09;5039654;28;20026;-69
2023/12/02 07:52:55;;;;;;;53.73;19.07;;;;;;;-145.18;100.00;46713.13;5026090;28;20084;-68
2023/12/02 07:55:20;;;;;;;55.50;18.23;;;;;;;-145.18;100.00;46713.13;5030211;28;20124;-69
2023/12/02 07:57:45;;;;;;;55.43;18.53;;;;;;;-145.18;100.00;46713.13;5025499;28;20091;-69
2023/12/02 08:00:12;;;;;;;58.27;20.50;;;;;;;-145.18;100.00;46719.00;5035761;28;20030;-69
2023/12/02 08:02:38;;;;;;;54.35;18.33;;;;;;;-145.18;100.00;46713.13;5032022;28;20033;-69
2023/12/02 08:05:03;;;;;;;54.17;19.30;;;;;;;-145.18;100.00;46709.22;5043603;28;20033;-69
2023/12/02 08:07:29;;;;;;;61.67;20.93;;;;;;;-145.18;100.00;46711.19;5036810;28;20044;-69
2023/12/02 08:09:54;;;;;;;59.13;19.50;;;;;;;-145.18;100.00;46713.13;5030142;28;20946;-69
2023/12/02 08:12:20;;;;;;;60.20;19.93;;;;;;;-145.18;100.00;46715.09;5032284;28;20120;-68
2023/12/02 08:14:45;;;;;;;56.40;20.93;;;;;;;-145.18;100.00;46711.19;5030554;28;20047;-69
2023/12/02 08:17:11;;;;;;;67.30;20.30;;;;;;;-145.18;100.00;46713.13;5038645;28;20129;-68
2023/12/02 08:19:36;;;;;;;55.50;20.70;;;;;;;-145.18;100.00;46715.09;5041790;28;20139;-69
2023/12/02 08:22:02;;;;;;;49.70;19.27;;;;;;;-145.18;100.00;46715.09;5032180;28;20067;-69
2023/12/02 08:24:28;;;;;;;61.40;20.20;;;;;;;-145.18;100.00;46717.03;5031945;28;20033;-69
2023/12/02 08:26:53;;;;;;;60.73;20.10;;;;;;;-145.18;100.00;46711.19;5039792;28;20029;-68
2023/12/02 08:29:18;;;;;;;61.97;19.90;;;;;;;-145.18;100.00;46715.09;5034103;28;20391;-69
2023/12/02 08:31:44;;;;;;;61.50;20.40;;;;;;;-145.18;100.00;46711.19;5035381;28;20030;-69
2023/12/02 08:34:09;;;;;;;59.67;19.07;;;;;;;-145.18;100.00;46711.19;5020013;28;20031;-69
2023/12/02 08:36:34;;;;;;;55.00;18.17;;;;;;;-145.18;100.00;46709.22;5032919;28;20034;-69
2023/12/02 08:39:02;;;;;;;59.57;18.60;;;;;;;-145.18;100.00;46705.31;5027981;28;20079;-69
2023/12/02 08:41:28;;;;;;;69.68;21.50;;;;;;;-145.18;100.00;46711.19;5034562;28;20040;-68
2023/12/02 08:43:53;;;;;;;56.03;19.80;;;;;;;-145.18;100.00;46709.22;5037645;28;20037;-69
2023/12/02 08:46:19;;;;;;;56.23;20.87;;;;;;;-145.18;100.00;46707.28;5035541;28;20073;-69
2023/12/02 08:48:45;;;;;;;57.20;20.17;;;;;;;-145.18;100.00;46711.19;5033104;28;20025;-68
2023/12/02 08:51:11;;;;;;;66.63;20.75;;;;;;;-145.18;100.00;46707.28;5030932;28;20344;-69
2023/12/02 08:53:37;;;;;;;57.17;20.53;;;;;;;-145.18;100.00;46703.38;5026077;28;20116;-69
2023/12/02 08:56:02;;;;;;;62.90;20.73;;;;;;;-145.18;100.00;46707.28;5027087;28;20481;-68
2023/12/02 08:58:28;;;;;;;63.33;21.63;;;;;;;-145.18;100.00;46703.38;5025265;28;20029;-69
2023/12/02 09:00:53;;;;;;;53.50;19.50;;;;;;;-145.18;100.00;46703.38;5018808;28;20041;-68
2023/12/02 09:03:18;;;;;;;56.20;19.07;;;;;;;-145.18;100.00;46701.41;5026887;28;20451;-68
2023/12/02 09:05:44;;;;;;;55.67;20.47;;;;;;;-145.18;100.00;46709.22;5023775;28;20034;-69
2023/12/02 09:08:09;;;;;;;56.80;19.33;;;;;;;-145.18;100.00;46701.41;5031080;28;20022;-68
2023/12/02 09:10:35;;;;;;;58.13;20.80;;;;;;;-145.18;100.00;46707.28;5025265;28;20045;-68
2023/12/02 09:13:01;;;;;;;51.83;17.97;;;;;;;-145.18;100.00;46705.31;5024365;28;20033;-68
2023/12/02 09:15:43;;;;;;;54.38;18.88;;;;;;;-145.18;100.00;46703.38;5032603;28;20068;-68
2023/12/02 09:18:10;;;;;;;50.15;18.02;;;;;;;-145.18;100.00;46707.28;5024678;28;20034;-68
2023/12/02 09:20:43;;;;;;;56.53;19.50;;;;;;;-145.18;100.00;46703.38;5025403;28;20092;-62
2023/12/02 09:23:10;;;;;;;58.40;20.10;;;;;;;-145.18;100.00;46701.41;5024437;28;20040;-62
2023/12/02 09:25:38;;;;;;;66.25;20.58;;;;;;;-145.18;100.00;46701.41;5021859;28;20036;-62
2023/12/02 09:28:06;;;;;;;52.08;19.48;;;;;;;-145.18;100.00;46703.38;5027875;28;20076;-62
2023/12/02 09:30:37;;;;;;;54.22;21.38;;;;;;;-145.18;100.00;46707.28;5029319;28;20021;-62
2023/12/02 09:33:06;;;;;;;56.15;19.10;;;;;;;-145.18;100.00;46705.31;5031084;28;20021;-62
2023/12/02 09:35:32;;;;;;;48.53;19.60;;;;;;;-145.18;100.00;46705.31;5027212;28;20083;-63
2023/12/02 09:37:59;;;;;;;54.58;19.05;;;;;;;-145.18;100.00;46707.28;5029167;28;20048;-62
2023/12/02 09:40:47;;;;;;;54.47;19.20;;;;;;;-145.18;100.00;46709.22;5029409;28;20030;-63
2023/12/02 09:43:57;;;;;;;57.70;21.95;;;;;;;-145.18;100.00;46707.28;5027362;28;20075;-63
2023/12/02 09:46:28;;;;;;;45.53;16.98;;;;;;;-145.18;100.00;46707.28;4992784;28;20523;-64
2023/12/02 09:49:18;;;;;;;57.17;19.27;;;;;;;-145.18;100.00;46703.38;5026687;28;20041;-64
2023/12/02 09:52:06;;;;;;;50.85;19.77;;;;;;;-145.18;100.00;46707.28;5023912;28;20499;-64
2023/12/02 09:54:46;;;;;;;56.63;19.60;;;;;;;-145.18;100.00;46707.28;5028453;28;20021;-65
2023/12/02 09:57:21;;;;;;;50.35;18.92;;;;;;;-145.18;100.00;46711.19;5023607;28;20060;-66
2023/12/02 10:00:12;;;;;;;59.05;21.30;;;;;;;-145.18;100.00;46707.28;5028900;28;20032;-67
2023/12/02 10:02:40;;;;;;;58.53;20.52;;;;;;;-145.18;100.00;46705.31;5026295;28;20033;-67
2023/12/02 10:05:06;;;;;;;51.45;19.63;;;;;;;-145.18;100.00;46707.28;5019745;28;20100;-68
2023/12/02 10:07:52;;;;;;;55.20;20.17;;;;;;;-145.18;100.00;46707.28;5013775;28;20117;-68
2023/12/02 10:10:23;;;;;;;59.63;20.77;;;;;;;-145.18;100.00;46711.19;5030230;28;20033;-68
2023/12/02 10:12:51;;;;;;;53.40;20.55;;;;;;;-145.18;100.00;46711.19;5029123;28;20029;-68
2023/12/02 10:15:19;;;;;;;52.28;18.40;;;;;;;-145.18;100.00;46707.28;5017400;28;20117;-68
2023/12/02 10:18:01;;;;;;;51.35;19.70;;;;;;;-145.18;100.00;46707.28;5022505;28;20269;-68
2023/12/02 10:20:28;;;;;;;54.80;19.60;;;;;;;-145.18;100.00;46711.19;5021953;28;20087;-68
2023/12/02 10:23:21;;;;;;;56.80;20.65;;;;;;;-145.18;100.00;46707.28;5021532;28;20033;-69
2023/12/02 10:26:08;;;;;;;60.80;21.42;;;;;;;-145.18;100.00;46703.38;5026409;28;20033;-68
2023/12/02 10:28:45;;;;;;;;;;;;;;;-145.18;100.00;46693.59;5028540;28;20036;-71
2023/12/02 10:31:22;;;;;;;50.35;17.77;;;;;;;-145.18;100.00;46695.56;5027554;28;19917;-71
2023/12/02 10:34:08;;;;;;;53.85;21.25;;;;;;;-145.18;100.00;46697.50;5022229;28;20056;-70
2023/12/02 10:36:34;;;;;;;53.67;21.00;;;;;;;-145.18;100.00;46695.56;5026105;28;20037;-72
2023/12/02 10:39:09;;;;;;;54.60;20.98;;;;;;;-145.18;100.00;46687.75;5028595;28;20030;-71
2023/12/02 10:42:00;;;;;;;52.22;21.20;;;;;;;-145.18;100.00;46689.69;5022454;28;20195;-71
2023/12/02 10:44:30;;;;;;;52.78;18.85;;;;;;;-145.18;100.00;46677.97;5018113;28;20034;-71
2023/12/02 10:46:58;;;;;;;51.80;20.00;;;;;;;-145.18;100.00;46656.50;5024653;28;20030;-70
2023/12/02 10:49:24;;;;;;;54.22;22.10;;;;;;;-145.18;100.00;46644.78;5021686;28;20056;-70
2023/12/02 10:51:52;;;;;;;56.28;21.90;;;;;;;-145.18;100.00;46660.41;5027424;28;20053;-70
2023/12/02 10:54:23;;;;;;;48.80;18.67;;;;;;;-145.18;100.00;46640.88;5026484;28;20026;-70